Flight Track Log - Related Links

Times and Time Zones

All times are in EDT time to prevent confusion due to time zone crossing. See the AFR7712 flight status page for this flight to view local times or setup timezone preferences in your user account.

Time Position Orientation Groundspeed Altitude Reporting Facility
EDT Latitude Longitude Course Direction KTS MPH feet Rate Location/Type
Mon 04:02:00 PM 48.4145 3.1287 147° Southeast  Level Estimated
Mon 04:03:00 PM 48.3545 3.1858 148° Southeast  Level Estimated
Mon 04:04:00 PM 48.2945 3.2428 148° Southeast  Level Estimated
Mon 04:05:00 PM 48.2345 3.2997 148° Southeast  Level Estimated
Mon 04:06:00 PM 48.1744 3.3564 148° Southeast  Level Estimated
Mon 04:07:00 PM 48.1143 3.4130 148° Southeast  Level Estimated
Mon 04:08:00 PM 48.0542 3.4694 148° Southeast  Level Estimated
Mon 04:09:00 PM 47.9940 3.5258 148° Southeast  Level Estimated
Mon 04:10:00 PM 47.9339 3.5819 148° Southeast  Level Estimated
Mon 04:11:00 PM 47.8736 3.6380 148° Southeast  Level Estimated
Mon 04:12:00 PM 47.8065 3.7003 148° Southeast  Level Estimated
Mon 04:13:00 PM 47.7394 3.7624 148° Southeast  Level Estimated
Mon 04:14:00 PM 47.6722 3.8244 148° Southeast  Level Estimated
Mon 04:15:00 PM 47.6112 3.8805 148° Southeast  Level Estimated
Mon 04:16:00 PM 47.5502 3.9366 148° Southeast  Level Estimated
Mon 04:17:00 PM 47.4891 3.9924 148° Southeast  Level Estimated
Mon 04:18:00 PM 47.4280 4.0482 148° Southeast  Level Estimated
Mon 04:19:00 PM 47.3669 4.1038 148° Southeast  Level Estimated
Mon 04:20:00 PM 47.3057 4.1593 148° Southeast  Level Estimated
Mon 04:21:00 PM 47.2445 4.2147 148° Southeast  Level Estimated
Mon 04:22:00 PM 47.1833 4.2699 148° Southeast  Level Estimated
Mon 04:23:00 PM 47.1221 4.3250 149° Southeast  Level Estimated
Mon 04:24:00 PM 47.0608 4.3800 149° Southeast  Level Estimated
Mon 04:25:00 PM 46.9996 4.4348 149° Southeast  Level Estimated
Mon 04:26:00 PM 46.9383 4.4896 149° Southeast  Level Estimated
Mon 04:27:00 PM 46.8769 4.5441 149° Southeast  Level Estimated
Mon 04:28:00 PM 46.8156 4.5986 149° Southeast  Level Estimated
Mon 04:29:00 PM 46.7542 4.6530 149° Southeast  Level Estimated
Mon 04:30:00 PM 46.6927 4.7072 149° Southeast  Level Estimated
Mon 04:31:00 PM 46.6313 4.7613 149° Southeast  Level Estimated
Mon 04:32:00 PM 46.5698 4.8153 149° Southeast  Level Estimated
Mon 04:33:00 PM 46.5083 4.8692 149° Southeast  Level Estimated
Mon 04:34:00 PM 46.4468 4.9229 149° Southeast  Level Estimated
Mon 04:35:00 PM 46.3853 4.9765 149° Southeast  Level Estimated
Mon 04:36:00 PM 46.3230 5.0306 149° Southeast  Level Estimated
Mon 04:37:00 PM 46.2607 5.0846 149° Southeast  Level Estimated
Mon 04:38:00 PM 46.1984 5.1385 149° Southeast  Level Estimated
Mon 04:39:00 PM 46.1360 5.1922 149° Southeast  Level Estimated
Mon 04:40:00 PM 46.0736 5.2459 149° Southeast  Level Estimated
Mon 04:41:00 PM 46.0112 5.2994 149° Southeast  Level Estimated
Mon 04:42:00 PM 45.9488 5.3528 149° Southeast  Level Estimated
Mon 04:43:00 PM 45.8863 5.4061 149° Southeast  Level Estimated
Mon 04:44:00 PM 45.8238 5.4592 149° Southeast  Level Estimated
Mon 04:45:00 PM 45.7613 5.5122 149° Southeast  Level Estimated
Mon 04:46:00 PM 45.6988 5.5651 149° Southeast  Level Estimated
Mon 04:47:00 PM 45.6362 5.6179 149° Southeast  Level Estimated
Mon 04:48:00 PM 45.5737 5.6706 149° Southeast  Level Estimated
Mon 04:49:00 PM 45.5111 5.7231 150° Southeast  Level Estimated
Mon 04:50:00 PM 45.4484 5.7756 150° Southeast  Level Estimated
Mon 04:51:00 PM 45.3858 5.8279 150° Southeast  Level Estimated
Mon 04:52:00 PM 45.3231 5.8801 150° Southeast  Level Estimated
Mon 04:53:00 PM 45.2604 5.9322 150° Southeast  Level Estimated
Mon 04:54:00 PM 45.1977 5.9842 150° Southeast  Level Estimated
Mon 04:55:00 PM 45.1349 6.0360 150° Southeast  Level Estimated
Mon 04:56:00 PM 45.0722 6.0878 150° Southeast  Level Estimated
Mon 04:57:00 PM 45.0093 6.1394 150° Southeast  Level Estimated
Mon 04:58:00 PM 44.9465 6.1909 150° Southeast  Level Estimated
Mon 04:59:00 PM 44.8837 6.2424 150° Southeast  Level Estimated
Mon 05:00:00 PM 44.8208 6.2937 150° Southeast  Level Estimated
Mon 05:01:00 PM 44.7579 6.3448 150° Southeast  Level Estimated
Mon 05:02:00 PM 44.6950 6.3959 150° Southeast  Level Estimated
Mon 05:03:00 PM 44.6321 6.4469 150° Southeast  Level Estimated
Mon 05:04:00 PM 44.5691 6.4977 150° Southeast  Level Estimated
Mon 05:05:00 PM 44.5062 6.5485 150° Southeast  Level Estimated
Mon 05:06:00 PM 44.4432 6.5991 150° Southeast  Level Estimated
Mon 05:07:00 PM 44.3801 6.6496 150° Southeast  Level Estimated
Mon 05:08:00 PM 44.3171 6.7000 150° Southeast  Level Estimated
Mon 05:09:00 PM 44.2540 6.7503 150° Southeast  Level Estimated
Mon 05:10:00 PM 44.1909 6.8005 150° Southeast  Level Estimated
Mon 05:11:00 PM 44.1278 6.8506 150° Southeast  Level Estimated
Mon 05:12:00 PM 44.0647 6.9006 150° Southeast  Level Estimated
Mon 05:13:00 PM 44.0015 6.9505 150° Southeast  Level Estimated
Mon 05:14:00 PM 43.9384 7.0002 150° Southeast  Level Estimated
Mon 05:15:00 PM 43.8752 7.0499 150° Southeast  Level Estimated
Mon 05:16:00 PM 43.8120 7.0995 150° Southeast  Level Estimated
Mon 05:17:00 PM 43.7487 7.1489 151° Southeast  Level Estimated
Mon 05:18:00 PM 43.6855 7.1983 151° Southeast  Level Estimated
Mon 05:19:00 PM 43.6607 7.2176 151° Southeast  Level Estimated
Mon 05:20:00 PM 43.6607 7.2176 144° Southeast  Level Estimated
Mon 05:21:00 PM 43.6607 7.2176 144° Southeast  Level Estimated
Mon 05:22:00 PM 43.6607 7.2176 144° Southeast  Level Estimated
Mon 05:23:00 PM 43.6607 7.2176 144° Southeast  Level Estimated
Mon 05:24:00 PM 43.6607 7.2176 144° Southeast  Level Estimated
Mon 05:25:00 PM 43.6607 7.2176 144° Southeast  Level Estimated
Mon 05:26:00 PM 43.6607 7.2176 144° Southeast  Level Estimated
Mon 05:27:00 PM 43.6607 7.2176 144° Southeast  Level Estimated
Mon 05:28:00 PM 43.6607 7.2176 144° Southeast  Level Estimated

Login

Don't have an account? Register now (free) for customized features, flight alerts, and more!